createdAt,value
2019-02-16T00:02:52.819Z,12.40
2019-02-16T00:08:07.461Z,12.40
2019-02-16T00:13:21.818Z,12.30
2019-02-16T00:18:36.355Z,12.20
2019-02-16T00:23:51.120Z,12.20
2019-02-16T00:29:05.804Z,12.10
2019-02-16T00:34:20.486Z,12.00
2019-02-16T00:39:34.827Z,11.90
2019-02-16T00:44:49.628Z,11.80
2019-02-16T00:50:03.983Z,11.80
2019-02-16T00:55:18.423Z,11.70
2019-02-16T01:00:32.984Z,11.70
2019-02-16T01:05:47.694Z,11.60
2019-02-16T01:11:02.084Z,11.50
2019-02-16T01:21:30.586Z,11.40
2019-02-16T01:26:45.053Z,11.30
2019-02-16T01:31:59.737Z,11.20
2019-02-16T01:37:14.167Z,11.20
2019-02-16T01:42:29.113Z,11.10
2019-02-16T01:47:43.584Z,11.00
2019-02-16T01:52:58.160Z,10.90
2019-02-16T01:58:12.681Z,10.90
2019-02-16T02:03:27.031Z,10.80
2019-02-16T02:08:41.403Z,10.70
2019-02-16T02:13:55.658Z,10.70
2019-02-16T02:19:10.134Z,10.60
2019-02-16T02:24:27.946Z,10.50
2019-02-16T02:29:42.345Z,10.40
2019-02-16T02:34:56.980Z,10.40
2019-02-16T02:40:11.660Z,10.30
2019-02-16T02:45:26.338Z,10.20
2019-02-16T02:50:40.768Z,10.20
2019-02-16T02:55:55.570Z,10.10
2019-02-16T03:01:10.047Z,10.00
2019-02-16T03:06:24.423Z,10.00
2019-02-16T03:11:39.037Z,9.90
2019-02-16T03:16:54.829Z,9.90
2019-02-16T03:22:08.997Z,9.80
2019-02-16T03:27:42.815Z,9.70
2019-02-16T03:33:26.832Z,9.60
2019-02-16T03:39:13.151Z,9.60
2019-02-16T03:44:27.546Z,9.50
2019-02-16T03:49:42.148Z,9.40
2019-02-16T03:54:57.479Z,9.40
2019-02-16T04:00:12.030Z,9.30
2019-02-16T04:05:26.895Z,9.20
2019-02-16T04:10:41.672Z,9.20
2019-02-16T04:15:56.341Z,9.10
2019-02-16T04:21:10.664Z,9.00
2019-02-16T04:26:25.053Z,9.00
2019-02-16T04:31:38.778Z,8.90
2019-02-16T04:36:53.238Z,8.80
2019-02-16T04:42:07.478Z,8.80
2019-02-16T04:47:22.506Z,8.70
2019-02-16T04:52:37.354Z,8.70
2019-02-16T04:57:51.859Z,8.60
2019-02-16T05:03:06.631Z,8.50
2019-02-16T05:08:21.400Z,8.50
2019-02-16T05:13:35.600Z,8.40
2019-02-16T05:18:49.957Z,8.40
2019-02-16T05:24:04.616Z,8.30
2019-02-16T05:29:18.970Z,8.20
2019-02-16T05:34:33.697Z,8.20
2019-02-16T05:39:48.359Z,8.10
2019-02-16T05:45:21.953Z,8.10
2019-02-16T05:50:36.630Z,8.00
2019-02-16T05:55:51.337Z,7.90
2019-02-16T06:01:05.831Z,7.90
2019-02-16T06:06:20.460Z,7.80
2019-02-16T06:11:35.124Z,7.70
2019-02-16T06:16:49.765Z,7.70
2019-02-16T06:22:04.275Z,7.60
2019-02-16T06:27:18.694Z,7.60
2019-02-16T06:32:33.172Z,7.50
2019-02-16T06:37:47.385Z,7.50
2019-02-16T06:43:01.802Z,7.40
2019-02-16T06:48:15.863Z,7.30
2019-02-16T06:53:30.138Z,7.30
2019-02-16T06:58:44.406Z,7.20
2019-02-16T07:03:58.919Z,7.20
2019-02-16T07:09:13.248Z,7.10
2019-02-16T07:14:28.286Z,7.10
2019-02-16T07:19:47.353Z,7.00
2019-02-16T07:25:01.795Z,6.70
2019-02-16T07:30:16.249Z,6.30
2019-02-16T07:35:32.636Z,5.90
2019-02-16T07:40:47.558Z,5.80
2019-02-16T07:46:27.497Z,5.80
2019-02-16T07:52:01.442Z,5.80
2019-02-16T07:57:26.240Z,5.80
2019-02-16T08:03:06.227Z,5.80
2019-02-16T08:14:06.719Z,5.80
2019-02-16T08:19:43.084Z,5.80
2019-02-16T08:25:19.592Z,5.80
2019-02-16T08:30:56.205Z,5.80
2019-02-16T08:36:35.848Z,5.80
2019-02-16T08:42:01.182Z,5.80
2019-02-16T08:47:40.560Z,5.90
2019-02-16T08:53:28.846Z,5.90
2019-02-16T08:59:11.539Z,5.90
2019-02-16T09:04:43.634Z,5.90
2019-02-16T09:10:31.156Z,6.00
2019-02-16T09:15:54.745Z,6.00
2019-02-16T09:21:31.452Z,6.00
2019-02-16T09:27:00.482Z,6.10
2019-02-16T09:32:32.001Z,6.10
2019-02-16T09:38:11.686Z,6.20
2019-02-16T09:43:45.170Z,6.20
2019-02-16T09:49:17.222Z,6.30
2019-02-16T09:54:49.371Z,6.30
2019-02-16T10:00:13.830Z,6.50
2019-02-16T10:06:05.343Z,6.70
2019-02-16T10:11:29.627Z,6.90
2019-02-16T10:17:06.014Z,7.10
2019-02-16T10:22:42.606Z,7.30
2019-02-16T10:28:14.756Z,7.50
2019-02-16T10:33:57.348Z,7.70
2019-02-16T10:39:39.757Z,7.90
2019-02-16T10:45:12.347Z,8.20
2019-02-16T10:50:55.189Z,8.50
2019-02-16T10:56:27.352Z,8.70
2019-02-16T11:01:52.174Z,9.00
2019-02-16T11:07:26.814Z,9.40
2019-02-16T11:13:00.109Z,9.70
2019-02-16T11:18:52.192Z,10.00
2019-02-16T11:24:25.756Z,10.30
2019-02-16T11:30:05.002Z,10.70
2019-02-16T11:35:44.711Z,11.10
2019-02-16T11:41:36.204Z,11.40
2019-02-16T11:47:24.825Z,11.70
2019-02-16T11:52:53.294Z,12.10
2019-02-16T11:58:35.744Z,12.50
2019-02-16T12:04:09.012Z,12.80
2019-02-16T12:09:41.995Z,13.10
2019-02-16T12:15:14.518Z,13.50
2019-02-16T12:20:55.111Z,13.90
2019-02-16T12:26:18.889Z,14.30
2019-02-16T12:31:52.163Z,14.70
2019-02-16T12:37:12.857Z,15.10
2019-02-16T12:42:44.788Z,15.60
2019-02-16T12:48:22.177Z,16.10
2019-02-16T15:18:23.403Z,24.00
2019-02-16T15:23:38.614Z,22.80
2019-02-16T15:28:56.019Z,21.60
2019-02-16T15:34:11.204Z,20.60
2019-02-16T15:39:25.561Z,19.70
2019-02-16T15:44:40.266Z,19.00
2019-02-16T15:49:55.023Z,18.40
2019-02-16T15:55:10.843Z,18.00
2019-02-16T16:00:33.689Z,17.50
2019-02-16T16:05:48.305Z,17.20
2019-02-16T16:11:12.968Z,17.40
2019-02-16T16:16:42.715Z,17.70
2019-02-16T16:22:09.554Z,18.00
2019-02-16T16:27:36.831Z,18.30
2019-02-16T16:33:09.034Z,18.50
2019-02-16T16:38:34.335Z,18.60
2019-02-16T16:44:02.182Z,18.80
2019-02-16T16:49:34.087Z,18.90
2019-02-16T16:55:19.655Z,19.00
2019-02-16T17:01:08.298Z,19.00
2019-02-16T17:06:40.320Z,19.00
2019-02-16T17:12:12.401Z,19.00
2019-02-16T17:17:44.978Z,19.00
2019-02-16T17:23:30.727Z,19.00
2019-02-16T17:29:03.845Z,18.90
2019-02-16T17:34:41.659Z,18.90
2019-02-16T17:40:13.337Z,18.80
2019-02-16T17:45:36.764Z,18.70
2019-02-16T17:50:58.209Z,18.70
2019-02-16T17:56:46.749Z,18.50
2019-02-16T18:02:19.798Z,18.40
2019-02-16T18:07:48.671Z,18.40
2019-02-16T18:13:32.758Z,18.30
2019-02-16T18:19:13.816Z,18.10
2019-02-16T18:24:50.994Z,18.00
2019-02-16T18:30:54.481Z,17.90
2019-02-16T18:36:24.142Z,17.80
2019-02-16T18:42:00.236Z,17.70
2019-02-16T18:47:33.869Z,17.60
2019-02-16T18:53:10.177Z,17.50
2019-02-16T18:58:47.018Z,17.40
2019-02-16T19:04:35.938Z,17.30
2019-02-16T19:10:12.267Z,17.20
2019-02-16T19:15:37.986Z,17.10
2019-02-16T19:21:20.649Z,17.00
2019-02-16T19:26:48.267Z,16.90
2019-02-16T19:32:30.728Z,16.70
2019-02-16T19:38:08.134Z,16.60
2019-02-16T19:43:29.237Z,16.60
2019-02-16T19:48:56.134Z,16.40
2019-02-16T19:54:35.665Z,16.30
2019-02-16T20:00:14.969Z,16.20
2019-02-16T20:05:48.368Z,16.20
2019-02-16T20:11:24.517Z,16.00
2019-02-16T20:17:07.091Z,15.90
2019-02-16T20:22:42.528Z,15.80
2019-02-16T20:28:14.085Z,15.70
2019-02-16T20:33:46.540Z,15.60
2019-02-16T20:39:19.086Z,15.50
2019-02-16T20:44:58.980Z,15.40
2019-02-16T20:50:26.391Z,15.30
2019-02-16T20:56:02.824Z,15.20
2019-02-16T21:01:36.283Z,15.10
2019-02-16T21:07:08.166Z,15.00
2019-02-16T21:12:40.624Z,14.90
2019-02-16T21:18:13.886Z,14.80
2019-02-16T21:23:46.116Z,14.70
2019-02-16T21:29:16.040Z,14.60
2019-02-16T21:35:01.726Z,14.50
2019-02-16T21:40:47.849Z,14.40
2019-02-16T21:46:20.468Z,14.30
2019-02-16T21:51:57.046Z,14.20
2019-02-16T21:57:39.929Z,14.10
2019-02-16T22:03:05.633Z,14.10
2019-02-16T22:08:42.581Z,14.00
2019-02-16T22:13:57.122Z,13.90
2019-02-16T22:19:11.602Z,13.80
2019-02-16T22:24:26.427Z,13.70
2019-02-16T22:29:41.176Z,13.60
2019-02-16T22:34:55.815Z,13.50
2019-02-16T22:40:10.305Z,13.40
2019-02-16T22:45:25.041Z,13.30
2019-02-16T22:50:39.981Z,13.30
2019-02-16T22:55:55.027Z,13.10
2019-02-16T23:01:11.427Z,13.10
2019-02-16T23:06:26.479Z,13.00
2019-02-16T23:11:41.662Z,12.90
2019-02-16T23:16:56.486Z,12.80
2019-02-16T23:22:11.204Z,12.70
2019-02-16T23:27:26.082Z,12.60
2019-02-16T23:32:40.671Z,12.60
2019-02-16T23:37:55.215Z,12.50
2019-02-16T23:43:09.531Z,12.40
2019-02-16T23:48:24.216Z,12.30
2019-02-16T23:53:38.591Z,12.20
2019-02-16T23:58:52.858Z,12.10
